Time;durP1;ratioP1;P1;durP2;ratioP2;P2;SDS_P1;SDS_P2;PMS_P1;PMS_P2;Temp;Humidity;BMP_temperature;BMP_pressure;BME280_temperature;BME280_humidity;BME280_pressure;Samples;Min_cycle;Max_cycle;Signal;HPM_P1;HPM_P2
2022/01/04 00:00:14;;;;;;;5.50;2.20;;;10.70;99.90;;;;;;5074837;28;20077;-78
2022/01/04 00:02:40;;;;;;;3.65;1.92;;;10.70;99.90;;;;;;5093059;28;20061;-78
2022/01/04 00:05:06;;;;;;;5.00;3.55;;;10.70;99.90;;;;;;5091699;28;20040;-78
2022/01/04 00:07:33;;;;;;;3.45;1.80;;;10.70;99.90;;;;;;5092795;28;20025;-77
2022/01/04 00:10:00;;;;;;;3.80;1.95;;;10.70;99.90;;;;;;5093102;28;20028;-77
2022/01/04 00:15:10;;;;;;;3.28;2.53;;;10.80;99.90;;;;;;5092401;28;20035;-77
2022/01/04 00:17:36;;;;;;;5.03;2.65;;;10.70;99.90;;;;;;5090386;28;20028;-77
2022/01/04 00:20:04;;;;;;;5.20;1.75;;;10.70;99.90;;;;;;5092194;28;20399;-77
2022/01/04 00:22:30;;;;;;;5.35;2.20;;;10.80;99.90;;;;;;5091352;28;20016;-78
2022/01/04 00:24:56;;;;;;;4.97;1.90;;;10.70;99.90;;;;;;5081958;28;20043;-77
2022/01/04 00:27:22;;;;;;;7.38;1.88;;;10.70;99.90;;;;;;5091755;28;20035;-77
2022/01/04 00:29:48;;;;;;;4.22;1.50;;;10.70;99.90;;;;;;5092626;28;20095;-77
2022/01/04 00:32:14;;;;;;;4.65;1.95;;;10.60;99.90;;;;;;5091602;28;20024;-76
2022/01/04 00:34:41;;;;;;;5.30;2.05;;;10.60;99.90;;;;;;5091186;28;20456;-76
2022/01/04 00:37:07;;;;;;;3.63;2.10;;;10.70;99.90;;;;;;5091793;28;20454;-77
2022/01/04 00:39:33;;;;;;;6.47;2.08;;;10.70;99.90;;;;;;5091791;28;20545;-77
2022/01/04 00:41:59;;;;;;;4.10;2.30;;;10.70;99.90;;;;;;5090667;28;20020;-77
2022/01/04 00:44:25;;;;;;;2.92;1.92;;;10.70;99.90;;;;;;5091911;28;20024;-77
2022/01/04 00:46:51;;;;;;;5.22;2.10;;;10.70;99.90;;;;;;5090437;28;20032;-76
2022/01/04 00:49:17;;;;;;;5.20;2.50;;;10.70;99.90;;;;;;5091754;28;20031;-76
2022/01/04 00:51:53;;;;;;;4.82;2.40;;;10.60;99.90;;;;;;5090543;28;20036;-76
2022/01/04 00:54:20;;;;;;;4.75;2.08;;;10.60;99.90;;;;;;5076145;28;20535;-76
2022/01/04 00:56:47;;;;;;;5.53;2.55;;;10.60;99.90;;;;;;5091179;28;20059;-76
2022/01/04 00:59:13;;;;;;;4.15;2.30;;;10.70;99.90;;;;;;5091207;28;20039;-76
2022/01/04 01:01:40;;;;;;;3.97;2.05;;;10.70;99.90;;;;;;5092295;28;20016;-76
2022/01/04 01:04:07;;;;;;;4.07;2.40;;;10.70;99.90;;;;;;5085469;28;20040;-76
2022/01/04 01:06:33;;;;;;;5.93;2.55;;;10.70;99.90;;;;;;5084866;28;20376;-76
2022/01/04 01:08:59;;;;;;;5.63;2.55;;;10.70;99.90;;;;;;5085782;28;20012;-76
2022/01/04 01:11:25;;;;;;;5.90;2.92;;;10.70;99.90;;;;;;5096374;28;20542;-78
2022/01/04 01:13:51;;;;;;;6.60;2.40;;;10.70;99.90;;;;;;5088121;28;20036;-78
2022/01/04 01:16:17;;;;;;;7.72;2.70;;;10.70;99.90;;;;;;5096519;28;20024;-78
2022/01/04 01:18:43;;;;;;;3.47;2.03;;;10.60;99.90;;;;;;5094267;28;20500;-78
2022/01/04 01:21:09;;;;;;;7.63;2.58;;;10.60;99.90;;;;;;5087590;28;20016;-78
2022/01/04 01:23:36;;;;;;;4.95;2.42;;;10.70;99.90;;;;;;5085761;28;20024;-78
2022/01/04 01:26:04;;;;;;;4.88;2.28;;;10.70;99.90;;;;;;5094881;28;20027;-78
2022/01/04 01:28:30;;;;;;;5.20;2.65;;;10.70;99.90;;;;;;5088348;28;20024;-78
2022/01/04 01:30:55;;;;;;;5.13;2.17;;;10.60;99.90;;;;;;5085182;28;20047;-78
2022/01/04 01:33:23;;;;;;;3.35;2.55;;;10.60;99.90;;;;;;5095968;28;20036;-78
2022/01/04 01:35:50;;;;;;;4.30;2.72;;;10.60;99.90;;;;;;5095302;28;20016;-78
2022/01/04 01:38:17;;;;;;;4.20;2.97;;;10.50;99.90;;;;;;5095710;28;20392;-78
2022/01/04 01:40:43;;;;;;;7.72;2.92;;;10.50;99.90;;;;;;5096078;28;20019;-78
2022/01/04 01:43:09;;;;;;;5.53;2.80;;;10.60;99.90;;;;;;5083595;28;20021;-79
2022/01/04 01:45:37;;;;;;;9.10;3.45;;;10.60;99.90;;;;;;5086882;28;20523;-79
2022/01/04 01:48:03;;;;;;;5.70;3.10;;;10.60;99.90;;;;;;5090998;28;20023;-78
2022/01/04 01:50:29;;;;;;;3.95;2.80;;;10.50;99.90;;;;;;5092803;28;20357;-78
2022/01/04 01:52:56;;;;;;;5.68;3.10;;;10.50;99.90;;;;;;5090748;28;20039;-78
2022/01/04 01:55:24;;;;;;;4.68;2.90;;;10.60;99.90;;;;;;5088306;28;20020;-79
2022/01/04 01:57:51;;;;;;;8.05;3.83;;;10.50;99.90;;;;;;5087661;28;20111;-78
2022/01/04 02:00:20;;;;;;;6.30;2.92;;;10.50;99.90;;;;;;5095327;28;20092;-80
2022/01/04 02:02:46;;;;;;;11.75;3.53;;;10.60;99.90;;;;;;5095448;28;20013;-78
2022/01/04 02:05:12;;;;;;;4.15;3.20;;;10.60;99.90;;;;;;5093555;28;20032;-79
2022/01/04 02:07:39;;;;;;;6.15;3.45;;;10.60;99.90;;;;;;5095056;28;20073;-78
2022/01/04 02:10:07;;;;;;;6.93;3.45;;;10.60;99.90;;;;;;5095240;28;20099;-77
2022/01/04 02:12:44;;;;;;;5.38;3.22;;;10.60;99.90;;;;;;5094592;28;20084;-78
2022/01/04 02:15:11;;;;;;;5.15;3.65;;;10.50;99.90;;;;;;5095108;28;20042;-78
2022/01/04 02:17:38;;;;;;;6.95;3.00;;;10.60;99.90;;;;;;5095013;28;20101;-78
2022/01/04 02:20:05;;;;;;;6.50;3.47;;;10.60;99.90;;;;;;5079199;28;20032;-78
2022/01/04 02:22:32;;;;;;;6.20;3.85;;;10.60;99.90;;;;;;5093920;28;20023;-78
2022/01/04 02:24:58;;;;;;;10.48;3.67;;;10.60;99.90;;;;;;5084840;28;20035;-77
2022/01/04 02:27:27;;;;;;;4.57;3.38;;;10.70;99.90;;;;;;5094197;28;20511;-79
2022/01/04 02:29:52;;;;;;;7.47;3.42;;;10.70;99.90;;;;;;5087053;28;20532;-78
2022/01/04 02:32:18;;;;;;;5.97;4.03;;;10.60;99.90;;;;;;5087589;28;20107;-78
2022/01/04 02:34:50;;;;;;;6.57;4.38;;;10.50;99.90;;;;;;5083533;28;20058;-77
2022/01/04 02:37:24;;;;;;;7.07;4.35;;;10.50;99.90;;;;;;5083295;28;20017;-78
2022/01/04 02:39:51;;;;;;;9.32;4.90;;;10.40;99.90;;;;;;5085217;28;20469;-77
2022/01/04 02:42:17;;;;;;;6.03;4.22;;;10.50;99.90;;;;;;5084683;28;20024;-77
2022/01/04 02:44:43;;;;;;;7.70;5.95;;;10.50;99.90;;;;;;5084802;28;20028;-77
2022/01/04 02:47:09;;;;;;;5.70;4.85;;;10.50;99.90;;;;;;5084542;28;20417;-77
2022/01/04 02:49:35;;;;;;;10.77;5.45;;;10.60;99.90;;;;;;5085585;28;20059;-78
2022/01/04 02:52:01;;;;;;;8.55;5.68;;;10.50;99.90;;;;;;5085238;28;20051;-77
2022/01/04 02:54:26;;;;;;;6.07;5.47;;;10.50;99.90;;;;;;5084225;28;20108;-78
2022/01/04 02:56:52;;;;;;;8.50;5.75;;;10.50;99.90;;;;;;5087475;28;20384;-77
2022/01/04 02:59:18;;;;;;;9.60;6.32;;;10.60;99.90;;;;;;5082292;28;20024;-77
2022/01/04 03:01:44;;;;;;;11.25;6.13;;;10.60;99.90;;;;;;5080231;28;20024;-78
2022/01/04 03:04:10;;;;;;;9.65;6.20;;;10.60;99.90;;;;;;5084377;28;20028;-79
2022/01/04 03:06:36;;;;;;;10.63;7.30;;;10.40;99.90;;;;;;5083918;28;20028;-77
2022/01/04 03:09:04;;;;;;;6.95;6.35;;;10.50;99.90;;;;;;5084784;28;20024;-78
2022/01/04 03:11:31;;;;;;;9.05;7.07;;;10.50;99.90;;;;;;5083690;28;20032;-77
2022/01/04 03:13:57;;;;;;;10.77;7.32;;;10.50;99.90;;;;;;5086392;28;20036;-77
2022/01/04 03:16:22;;;;;;;9.20;6.82;;;10.50;99.90;;;;;;5094315;28;20376;-77
2022/01/04 03:19:06;;;;;;;8.70;6.45;;;10.50;99.90;;;;;;5093857;28;20537;-77
2022/01/04 03:21:40;;;;;;;9.13;7.68;;;10.50;99.90;;;;;;5094115;28;20430;-77
2022/01/04 03:24:08;;;;;;;11.25;8.02;;;10.50;99.90;;;;;;5082695;28;20024;-77
2022/01/04 03:26:34;;;;;;;10.80;7.05;;;10.60;99.90;;;;;;5092470;28;20442;-77
2022/01/04 03:29:00;;;;;;;12.85;8.05;;;10.60;99.90;;;;;;5083823;28;20019;-77
2022/01/04 03:31:28;;;;;;;8.05;7.10;;;10.60;99.90;;;;;;5092389;28;20028;-76
2022/01/04 03:33:54;;;;;;;12.90;7.90;;;10.60;99.90;;;;;;5093071;28;20495;-77
2022/01/04 03:36:22;;;;;;;9.75;7.70;;;10.70;99.90;;;;;;5082188;28;20106;-77
2022/01/04 03:38:49;;;;;;;11.23;8.60;;;10.60;99.90;;;;;;5092002;28;20019;-77
2022/01/04 03:41:16;;;;;;;8.57;7.35;;;10.70;99.90;;;;;;5088991;28;20031;-78
2022/01/04 03:43:42;;;;;;;12.80;8.90;;;10.70;99.90;;;;;;5082625;28;20059;-77
2022/01/04 03:46:08;;;;;;;10.60;8.25;;;10.70;99.90;;;;;;5079394;28;20056;-77
2022/01/04 03:48:34;;;;;;;11.35;8.23;;;10.70;99.90;;;;;;5083264;28;20031;-78
2022/01/04 03:51:01;;;;;;;12.85;8.50;;;10.70;99.90;;;;;;5080955;28;20028;-78
2022/01/04 03:53:27;;;;;;;12.57;8.60;;;10.60;99.90;;;;;;5082418;28;20437;-78
2022/01/04 03:55:52;;;;;;;11.38;8.82;;;10.60;99.90;;;;;;5080804;28;20021;-78
2022/01/04 03:58:18;;;;;;;12.38;9.50;;;10.60;99.90;;;;;;5082492;28;20024;-78
2022/01/04 04:00:43;;;;;;;12.60;8.85;;;10.60;99.90;;;;;;5081476;28;20053;-77
2022/01/04 04:03:09;;;;;;;11.80;8.77;;;10.60;99.90;;;;;;5083003;28;20391;-77
2022/01/04 04:05:35;;;;;;;11.10;8.07;;;10.60;99.90;;;;;;5083437;28;20389;-77
2022/01/04 04:08:00;;;;;;;11.57;8.85;;;10.50;99.90;;;;;;5083448;28;20683;-78
2022/01/04 04:10:26;;;;;;;10.70;8.65;;;10.60;99.90;;;;;;5080663;28;20028;-78
2022/01/04 04:12:52;;;;;;;10.88;9.20;;;10.50;99.90;;;;;;5081354;28;20032;-77
2022/01/04 04:15:17;;;;;;;15.00;9.55;;;10.60;99.90;;;;;;5081640;28;20545;-78
2022/01/04 04:17:48;;;;;;;11.68;8.32;;;10.60;99.90;;;;;;5082939;28;20012;-77
2022/01/04 04:20:14;;;;;;;11.23;8.63;;;10.70;99.90;;;;;;5081041;28;20028;-78
2022/01/04 04:22:40;;;;;;;12.75;9.20;;;10.70;99.90;;;;;;5083545;28;20025;-79
2022/01/04 04:25:06;;;;;;;13.95;9.45;;;10.60;99.90;;;;;;5081489;28;20030;-78
2022/01/04 04:27:32;;;;;;;13.93;9.30;;;10.60;99.90;;;;;;5081871;28;20535;-77
2022/01/04 04:29:58;;;;;;;14.25;8.75;;;10.60;99.90;;;;;;5080129;28;20130;-77
2022/01/04 04:32:24;;;;;;;13.90;9.30;;;10.60;99.90;;;;;;5082520;28;20016;-76
2022/01/04 04:34:50;;;;;;;11.45;9.18;;;10.50;99.90;;;;;;5081584;28;20394;-76
2022/01/04 04:37:15;;;;;;;14.30;9.45;;;10.50;99.90;;;;;;5081426;28;20028;-76
2022/01/04 04:39:41;;;;;;;12.40;8.82;;;10.50;99.90;;;;;;5079548;28;20035;-77
2022/01/04 04:42:07;;;;;;;11.35;9.02;;;10.60;99.90;;;;;;5080851;28;20471;-76
2022/01/04 04:44:33;;;;;;;15.65;9.32;;;10.60;99.90;;;;;;5080652;28;20051;-76
2022/01/04 04:46:58;;;;;;;12.70;9.15;;;10.50;99.90;;;;;;5081228;28;20048;-77
2022/01/04 04:49:24;;;;;;;16.52;9.75;;;10.50;99.90;;;;;;5080625;28;20106;-77
2022/01/04 04:51:50;;;;;;;10.25;8.15;;;10.40;99.90;;;;;;5081440;28;20169;-77
2022/01/04 04:54:15;;;;;;;12.50;9.43;;;10.30;99.90;;;;;;5081791;28;20514;-77
2022/01/04 04:56:41;;;;;;;14.45;9.27;;;10.30;99.90;;;;;;5078113;28;20439;-77
2022/01/04 04:59:08;;;;;;;12.75;9.70;;;10.30;99.90;;;;;;5082488;28;20075;-76
2022/01/04 05:01:35;;;;;;;13.75;9.90;;;10.30;99.90;;;;;;5081529;28;20495;-76
2022/01/04 05:04:01;;;;;;;16.10;10.20;;;10.40;99.90;;;;;;5082514;28;20550;-77
2022/01/04 05:06:28;;;;;;;14.43;9.30;;;10.30;99.90;;;;;;5081114;28;20036;-76
2022/01/04 05:08:54;;;;;;;16.38;9.90;;;10.40;99.90;;;;;;5080136;28;20024;-76
2022/01/04 05:11:20;;;;;;;13.65;10.48;;;10.30;99.90;;;;;;5080726;28;20465;-76
2022/01/04 05:13:46;;;;;;;13.60;9.85;;;10.40;99.90;;;;;;5082243;28;20046;-76
2022/01/04 05:16:11;;;;;;;14.30;9.07;;;10.40;99.90;;;;;;5081548;28;20020;-76
2022/01/04 05:18:37;;;;;;;15.55;9.10;;;10.40;99.90;;;;;;5081930;28;20028;-78
2022/01/04 05:21:03;;;;;;;11.75;9.07;;;10.30;99.90;;;;;;5080333;28;20028;-77
2022/01/04 05:23:30;;;;;;;13.07;9.80;;;10.40;99.90;;;;;;5082123;28;20028;-77
2022/01/04 05:25:56;;;;;;;14.02;9.70;;;10.30;99.90;;;;;;5081766;28;20020;-77
2022/01/04 05:28:22;;;;;;;13.38;8.70;;;10.40;99.90;;;;;;5080013;28;20036;-77
2022/01/04 05:30:47;;;;;;;14.35;9.90;;;10.40;99.90;;;;;;5080311;28;20017;-77
2022/01/04 05:33:13;;;;;;;12.65;7.78;;;10.40;99.90;;;;;;5081118;28;20519;-76
2022/01/04 05:35:39;;;;;;;12.15;8.57;;;10.30;99.90;;;;;;5080813;28;20016;-76
2022/01/04 05:38:05;;;;;;;12.55;8.88;;;10.30;99.90;;;;;;5082180;28;20039;-76
2022/01/04 05:40:31;;;;;;;16.60;9.45;;;10.30;99.90;;;;;;5080667;28;20020;-76
2022/01/04 05:42:57;;;;;;;11.48;8.65;;;10.40;99.90;;;;;;5079776;28;20020;-76
2022/01/04 05:45:22;;;;;;;13.65;9.30;;;10.40;99.90;;;;;;5080751;28;20103;-77
2022/01/04 05:47:48;;;;;;;12.73;9.20;;;10.40;99.90;;;;;;5080151;28;20052;-76
2022/01/04 05:50:14;;;;;;;12.02;8.93;;;10.30;99.90;;;;;;5080076;28;20052;-77
2022/01/04 05:52:40;;;;;;;12.60;9.38;;;10.30;99.90;;;;;;5078300;28;20365;-76
2022/01/04 05:55:06;;;;;;;13.90;9.80;;;10.30;99.90;;;;;;5084343;28;20038;-76
2022/01/04 05:57:32;;;;;;;14.88;9.82;;;10.30;99.90;;;;;;5084983;28;20529;-75
2022/01/04 05:59:59;;;;;;;14.75;9.18;;;10.30;99.90;;;;;;5085372;28;20048;-76
2022/01/04 06:02:26;;;;;;;12.35;8.77;;;10.30;99.90;;;;;;5083774;28;20051;-77
2022/01/04 06:04:52;;;;;;;13.57;8.57;;;10.30;99.90;;;;;;5085224;28;20031;-77
2022/01/04 06:07:18;;;;;;;12.52;9.15;;;10.30;99.90;;;;;;5083572;28;20025;-77
2022/01/04 06:09:47;;;;;;;14.60;9.60;;;10.30;99.90;;;;;;5082982;28;20082;-77
2022/01/04 06:14:52;;;;;;;11.13;8.70;;;10.40;99.90;;;;;;5083943;28;20040;-78
2022/01/04 06:17:19;;;;;;;12.70;8.90;;;10.40;99.90;;;;;;5084331;28;20027;-77
2022/01/04 06:19:45;;;;;;;12.00;8.73;;;10.50;99.90;;;;;;5085392;28;20028;-77
2022/01/04 06:22:11;;;;;;;12.88;8.60;;;10.50;99.90;;;;;;5082492;28;20545;-77
2022/01/04 06:24:37;;;;;;;13.80;8.73;;;10.40;99.90;;;;;;5084979;28;20104;-77
2022/01/04 06:27:10;;;;;;;11.50;8.02;;;10.40;99.90;;;;;;5081831;28;20392;-76
2022/01/04 06:29:38;;;;;;;13.85;9.05;;;10.30;99.90;;;;;;5083382;28;20020;-76
2022/01/04 06:32:05;;;;;;;12.75;8.57;;;10.30;99.90;;;;;;5084958;28;20442;-76
2022/01/04 06:34:31;;;;;;;17.05;9.50;;;10.30;99.90;;;;;;5091871;28;20028;-77
2022/01/04 06:36:57;;;;;;;14.48;8.63;;;10.40;99.90;;;;;;5095641;28;20354;-76
2022/01/04 06:39:23;;;;;;;13.35;9.00;;;10.40;99.90;;;;;;5094181;28;20441;-77
2022/01/04 06:41:48;;;;;;;13.07;8.38;;;10.50;99.90;;;;;;5091690;28;20103;-76
2022/01/04 06:44:14;;;;;;;10.63;7.75;;;10.40;99.90;;;;;;5075165;28;20033;-77
2022/01/04 06:46:45;;;;;;;13.32;8.70;;;10.40;99.90;;;;;;5075417;28;20025;-77
2022/01/04 06:49:20;;;;;;;16.00;8.57;;;10.40;99.90;;;;;;5075056;28;20025;-78
2022/01/04 06:51:48;;;;;;;13.82;8.65;;;10.40;99.90;;;;;;5075108;28;20058;-76
2022/01/04 06:54:16;;;;;;;16.35;8.35;;;10.40;99.90;;;;;;5094185;28;20040;-77
2022/01/04 06:56:42;;;;;;;15.10;8.27;;;10.30;99.90;;;;;;5095011;28;20077;-77
2022/01/04 06:59:07;;;;;;;12.93;8.50;;;10.30;99.90;;;;;;5095071;28;20062;-77
2022/01/04 07:01:35;;;;;;;12.80;8.60;;;10.30;99.90;;;;;;5090309;28;20583;-77
2022/01/04 07:04:00;;;;;;;14.02;8.98;;;10.30;99.90;;;;;;5077128;28;20046;-76
2022/01/04 07:06:26;;;;;;;13.85;8.68;;;10.30;99.90;;;;;;5074336;28;20118;-76
2022/01/04 07:08:52;;;;;;;11.93;7.80;;;10.30;99.90;;;;;;5074915;28;20046;-76
2022/01/04 07:11:18;;;;;;;12.68;9.43;;;10.30;99.90;;;;;;5074017;28;20028;-77
2022/01/04 07:13:44;;;;;;;13.40;8.88;;;10.20;99.90;;;;;;5073383;28;20036;-77
2022/01/04 07:16:10;;;;;;;14.27;8.50;;;10.20;99.90;;;;;;5074701;28;20051;-77
2022/01/04 07:18:36;;;;;;;13.20;8.68;;;10.10;99.90;;;;;;5074891;28;20039;-76
2022/01/04 07:21:02;;;;;;;12.85;8.35;;;10.20;99.90;;;;;;5074450;28;20021;-76
2022/01/04 07:23:29;;;;;;;11.82;7.85;;;10.30;99.90;;;;;;5074296;28;20025;-77
2022/01/04 07:25:55;;;;;;;11.00;7.50;;;10.30;99.90;;;;;;5081948;28;20508;-77
2022/01/04 07:28:22;;;;;;;13.75;8.65;;;10.30;99.90;;;;;;5090027;28;20030;-77
2022/01/04 07:30:48;;;;;;;13.75;8.13;;;10.30;99.90;;;;;;5093009;28;20032;-77
2022/01/04 07:33:14;;;;;;;10.88;7.88;;;10.20;99.90;;;;;;5087021;28;20081;-77
2022/01/04 07:35:40;;;;;;;14.90;7.72;;;10.20;99.90;;;;;;5080458;28;20031;-77
2022/01/04 07:38:06;;;;;;;12.65;7.43;;;10.20;99.90;;;;;;5081751;28;20032;-76
2022/01/04 07:40:32;;;;;;;13.38;7.72;;;10.30;99.90;;;;;;5083514;28;20059;-76
2022/01/04 07:43:00;;;;;;;12.93;7.88;;;10.30;99.90;;;;;;5088787;28;20031;-76
2022/01/04 07:45:30;;;;;;;10.52;7.40;;;10.20;99.90;;;;;;5082729;28;20388;-77
2022/01/04 07:47:56;;;;;;;12.60;7.95;;;10.20;99.90;;;;;;5077148;28;20029;-77
2022/01/04 07:50:22;;;;;;;12.32;8.25;;;10.20;99.90;;;;;;5082203;28;20031;-77
2022/01/04 07:52:47;;;;;;;11.43;7.90;;;10.20;99.90;;;;;;5081007;28;20032;-76
2022/01/04 07:55:13;;;;;;;13.48;8.32;;;10.00;99.90;;;;;;5081688;28;20361;-76
2022/01/04 07:57:40;;;;;;;13.18;8.02;;;10.10;99.90;;;;;;5089973;28;20032;-76
2022/01/04 08:00:07;;;;;;;15.93;9.00;;;10.10;99.90;;;;;;5081711;28;20024;-78
2022/01/04 08:02:33;;;;;;;14.88;9.05;;;10.10;99.90;;;;;;5076832;28;20035;-76
2022/01/04 08:04:59;;;;;;;12.95;8.55;;;10.20;99.90;;;;;;5085797;28;20020;-76
2022/01/04 08:07:24;;;;;;;14.13;8.27;;;10.20;99.90;;;;;;5082347;28;20025;-77
2022/01/04 08:09:50;;;;;;;12.02;8.07;;;10.10;99.90;;;;;;5093033;28;20089;-78
2022/01/04 08:12:17;;;;;;;16.35;9.52;;;10.10;99.90;;;;;;5085845;28;20055;-77
2022/01/04 08:14:44;;;;;;;17.55;9.38;;;10.10;99.90;;;;;;5073729;28;20082;-78
2022/01/04 08:17:11;;;;;;;18.60;9.90;;;10.20;99.90;;;;;;5072286;28;20052;-78
2022/01/04 08:19:36;;;;;;;15.90;9.48;;;10.10;99.90;;;;;;5073431;28;20029;-77
2022/01/04 08:22:02;;;;;;;16.25;9.75;;;10.10;99.90;;;;;;5076600;28;20028;-77
2022/01/04 08:24:28;;;;;;;18.63;9.50;;;10.10;99.90;;;;;;5080444;28;20025;-76
2022/01/04 08:26:54;;;;;;;15.73;9.18;;;10.10;99.90;;;;;;5071987;28;20430;-77
2022/01/04 08:29:19;;;;;;;18.38;10.55;;;10.20;99.90;;;;;;5081414;28;20393;-76
2022/01/04 08:31:45;;;;;;;13.45;9.70;;;10.10;99.90;;;;;;5091272;28;20021;-77
2022/01/04 08:34:11;;;;;;;19.88;11.48;;;10.10;99.90;;;;;;5092727;28;20032;-77
2022/01/04 08:36:38;;;;;;;20.17;11.07;;;10.10;99.90;;;;;;5078307;28;20044;-77
2022/01/04 08:39:04;;;;;;;20.35;10.55;;;10.10;99.90;;;;;;5072927;28;20043;-77
2022/01/04 08:41:29;;;;;;;14.15;9.63;;;10.20;99.90;;;;;;5078632;28;20029;-77
2022/01/04 08:43:55;;;;;;;16.05;10.15;;;10.10;99.90;;;;;;5081188;28;20061;-77
2022/01/04 08:46:22;;;;;;;16.77;10.77;;;10.10;99.90;;;;;;5076245;28;20032;-78
2022/01/04 08:48:48;;;;;;;16.42;10.43;;;10.00;99.90;;;;;;5078940;28;20028;-78
2022/01/04 08:51:14;;;;;;;17.58;10.38;;;10.00;99.90;;;;;;5083476;28;20024;-79
2022/01/04 08:53:40;;;;;;;18.15;11.43;;;10.00;99.90;;;;;;5080264;28;20122;-79
2022/01/04 08:56:06;;;;;;;16.58;10.43;;;10.00;99.90;;;;;;5085947;28;20112;-79
2022/01/04 08:58:32;;;;;;;20.17;11.32;;;10.00;99.90;;;;;;5083794;28;20024;-79
2022/01/04 09:00:59;;;;;;;17.42;10.77;;;10.00;99.90;;;;;;5088360;28;20497;-78
2022/01/04 09:03:25;;;;;;;18.42;10.93;;;10.00;99.90;;;;;;5079717;28;20017;-78
2022/01/04 09:05:51;;;;;;;20.17;11.82;;;10.00;99.90;;;;;;5080776;28;20039;-78
2022/01/04 09:08:17;;;;;;;17.98;12.00;;;10.00;99.90;;;;;;5082636;28;20050;-79
2022/01/04 09:10:42;;;;;;;20.60;11.88;;;10.00;99.90;;;;;;5081720;28;20032;-80
2022/01/04 09:13:18;;;;;;;18.58;12.40;;;10.00;99.90;;;;;;5089604;28;20032;-78
2022/01/04 09:21:07;;;;;;;19.60;11.23;;;10.00;99.90;;;;;;5072628;28;20555;-78
2022/01/04 09:23:33;;;;;;;19.45;11.05;;;10.00;99.90;;;;;;5072345;28;20035;-78
2022/01/04 09:25:59;;;;;;;19.15;11.50;;;9.90;99.90;;;;;;5071941;28;20021;-79
2022/01/04 09:28:25;;;;;;;18.88;11.40;;;10.00;99.90;;;;;;5069756;28;20025;-79
2022/01/04 09:30:52;;;;;;;20.48;10.60;;;9.90;99.90;;;;;;5074840;28;20373;-79
2022/01/04 09:33:19;;;;;;;22.90;11.90;;;9.90;99.90;;;;;;5074204;28;20076;-78
2022/01/04 09:35:44;;;;;;;19.13;10.55;;;10.00;99.90;;;;;;5075009;28;20024;-79
2022/01/04 09:38:10;;;;;;;19.45;10.57;;;9.90;99.90;;;;;;5085942;28;20425;-79
2022/01/04 09:40:37;;;;;;;19.15;10.70;;;10.00;99.90;;;;;;5076445;28;20035;-78
2022/01/04 09:43:04;;;;;;;17.00;10.27;;;10.00;99.90;;;;;;5080097;28;20053;-78
2022/01/04 09:45:30;;;;;;;20.63;11.10;;;10.00;99.90;;;;;;5076355;28;20025;-79
2022/01/04 09:47:56;;;;;;;19.55;10.90;;;10.00;99.90;;;;;;5075940;28;20044;-80
2022/01/04 09:50:22;;;;;;;22.45;11.50;;;10.00;99.90;;;;;;5080774;28;20389;-79
2022/01/04 09:52:49;;;;;;;25.50;11.77;;;10.00;99.90;;;;;;5080892;28;20499;-79
2022/01/04 09:55:16;;;;;;;15.75;10.35;;;10.00;99.90;;;;;;5085888;28;20039;-79
2022/01/04 09:57:43;;;;;;;20.00;10.07;;;10.00;99.90;;;;;;5096272;28;20023;-79
2022/01/04 10:00:12;;;;;;;24.55;11.23;;;10.00;99.90;;;;;;5077267;28;20025;-78
2022/01/04 10:02:37;;;;;;;24.10;11.25;;;10.00;99.90;;;;;;5084006;28;20015;-77
2022/01/04 10:05:25;;;;;;;23.40;12.10;;;10.00;99.90;;;;;;5073409;28;20043;-79
2022/01/04 10:08:00;;;;;;;27.70;13.45;;;10.00;99.90;;;;;;5085278;28;20028;-78
2022/01/04 10:10:26;;;;;;;25.00;12.75;;;10.00;99.90;;;;;;5095474;28;20376;-78
2022/01/04 10:12:59;;;;;;;25.35;12.65;;;10.00;99.90;;;;;;5094181;28;20040;-78
2022/01/04 10:15:37;;;;;;;24.95;12.25;;;10.00;99.90;;;;;;5075667;28;20384;-79
2022/01/04 10:18:16;;;;;;;28.15;13.02;;;10.10;99.90;;;;;;5080367;28;20069;-79
2022/01/04 10:20:48;;;;;;;27.58;14.10;;;10.00;99.90;;;;;;5082523;28;20019;-79
2022/01/04 10:23:19;;;;;;;30.48;14.90;;;10.10;99.90;;;;;;5095231;28;20383;-79
2022/01/04 10:25:47;;;;;;;27.80;14.07;;;10.20;99.90;;;;;;5095825;28;20107;-79
2022/01/04 10:28:32;;;;;;;27.40;14.13;;;10.20;99.90;;;;;;5095793;28;20024;-79
2022/01/04 10:31:09;;;;;;;27.05;14.23;;;10.10;99.90;;;;;;5093170;28;20553;-79
2022/01/04 10:33:35;;;;;;;30.15;13.50;;;10.10;99.90;;;;;;5095013;28;20047;-78
2022/01/04 10:36:11;;;;;;;25.80;15.00;;;10.10;99.90;;;;;;5094951;28;20059;-79
2022/01/04 10:38:42;;;;;;;28.83;14.95;;;10.20;99.90;;;;;;5095624;28;20054;-77
2022/01/04 10:41:22;;;;;;;28.05;13.60;;;10.20;99.90;;;;;;5095133;28;20024;-79
2022/01/04 10:43:55;;;;;;;28.38;13.98;;;10.20;99.90;;;;;;5095793;28;20081;-79
2022/01/04 10:46:32;;;;;;;29.60;14.50;;;10.10;99.90;;;;;;5092850;28;20031;-77
2022/01/04 10:48:59;;;;;;;27.90;14.57;;;10.10;99.90;;;;;;5077957;28;20028;-78
2022/01/04 10:51:27;;;;;;;31.08;15.57;;;10.10;99.90;;;;;;5074890;28;20082;-79
2022/01/04 10:54:06;;;;;;;29.70;15.40;;;10.10;99.90;;;;;;5074947;28;20384;-80
2022/01/04 10:56:38;;;;;;;33.40;16.45;;;10.10;99.90;;;;;;5086278;28;20020;-78
2022/01/04 10:59:08;;;;;;;33.30;15.93;;;10.10;99.90;;;;;;5095181;28;20028;-76
2022/01/04 11:01:45;;;;;;;30.65;17.95;;;10.10;99.90;;;;;;5080683;28;20025;-79
2022/01/04 11:04:17;;;;;;;33.95;18.15;;;10.00;99.90;;;;;;5073058;28;20031;-78
2022/01/04 11:06:43;;;;;;;35.63;18.55;;;10.10;99.90;;;;;;5091152;28;20031;-80
2022/01/04 11:09:10;;;;;;;32.42;18.55;;;10.10;99.90;;;;;;5080938;28;20032;-76
2022/01/04 11:11:36;;;;;;;33.88;19.30;;;10.10;99.90;;;;;;5074805;28;20081;-77
2022/01/04 11:14:02;;;;;;;39.65;18.60;;;10.20;99.90;;;;;;5074801;28;20029;-77
2022/01/04 11:16:29;;;;;;;31.77;17.42;;;10.20;99.90;;;;;;5074136;28;20488;-80
2022/01/04 11:18:57;;;;;;;33.85;18.05;;;10.20;99.90;;;;;;5073006;28;20035;-80
2022/01/04 11:21:31;;;;;;;30.90;16.35;;;10.20;99.90;;;;;;5073904;28;20162;-79
2022/01/04 11:23:57;;;;;;;32.17;17.75;;;10.20;99.90;;;;;;5074654;28;20036;-79
2022/01/04 11:26:23;;;;;;;32.55;17.92;;;10.20;99.90;;;;;;5073966;28;20020;-78
2022/01/04 11:28:50;;;;;;;32.72;17.88;;;10.20;99.90;;;;;;5074337;28;20127;-80
2022/01/04 11:31:19;;;;;;;31.35;18.58;;;10.10;99.90;;;;;;5081736;28;20024;-79
2022/01/04 11:33:53;;;;;;;30.85;17.92;;;10.20;99.90;;;;;;5073584;28;20037;-79
2022/01/04 11:36:20;;;;;;;27.38;16.00;;;10.20;99.90;;;;;;5073262;28;20032;-79
2022/01/04 11:38:46;;;;;;;26.02;15.73;;;10.20;99.90;;;;;;5074393;28;20416;-80
2022/01/04 11:41:25;;;;;;;30.52;17.80;;;10.20;99.90;;;;;;5074041;28;20036;-79
2022/01/04 11:43:50;;;;;;;33.25;17.13;;;10.30;99.90;;;;;;5086643;28;20028;-79
2022/01/04 11:46:35;;;;;;;30.13;15.90;;;10.30;99.90;;;;;;5094081;28;20039;-79
2022/01/04 11:49:14;;;;;;;26.10;16.50;;;10.30;99.90;;;;;;5094295;28;20043;-78
2022/01/04 11:51:43;;;;;;;28.17;16.17;;;10.20;99.90;;;;;;5092488;28;20024;-79
2022/01/04 11:54:14;;;;;;;30.08;15.43;;;10.20;99.90;;;;;;5091139;28;20047;-79
2022/01/04 11:56:55;;;;;;;31.55;15.60;;;10.30;99.90;;;;;;5083388;28;20039;-76
2022/01/04 11:59:24;;;;;;;29.90;16.23;;;10.30;99.90;;;;;;5072977;28;20134;-80
2022/01/04 12:01:51;;;;;;;30.00;16.63;;;10.30;99.90;;;;;;5086911;28;20050;-79
2022/01/04 12:04:46;;;;;;;31.10;17.33;;;10.20;99.90;;;;;;5068739;28;20038;-79
2022/01/04 12:07:47;;;;;;;26.42;16.42;;;10.30;99.90;;;;;;5087120;28;20028;-80
2022/01/04 12:10:19;;;;;;;25.65;16.55;;;10.30;99.90;;;;;;5091784;28;20028;-79
2022/01/04 12:12:53;;;;;;;31.15;15.68;;;10.30;99.90;;;;;;5087167;28;20024;-79
2022/01/04 12:15:35;;;;;;;33.42;15.88;;;10.30;99.90;;;;;;5084930;28;20045;-80
2022/01/04 12:18:09;;;;;;;26.20;16.10;;;10.30;99.90;;;;;;5092071;28;20028;-80
2022/01/04 12:20:43;;;;;;;29.50;15.60;;;10.30;99.90;;;;;;5092772;28;20354;-78
2022/01/04 12:23:31;;;;;;;29.58;16.10;;;10.30;99.90;;;;;;5093113;28;20103;-78
2022/01/04 12:26:03;;;;;;;29.13;17.00;;;10.30;99.90;;;;;;5092354;28;20042;-78
2022/01/04 12:28:37;;;;;;;30.17;15.85;;;10.30;99.90;;;;;;5092849;28;20020;-79
2022/01/04 12:31:19;;;;;;;29.65;15.05;;;10.30;99.90;;;;;;5090874;28;20476;-77
2022/01/04 12:33:51;;;;;;;26.25;15.85;;;10.30;99.90;;;;;;5075524;28;20028;-77
2022/01/04 12:36:29;;;;;;;25.63;16.48;;;10.20;99.90;;;;;;5086506;28;20016;-77
2022/01/04 12:38:58;;;;;;;29.13;17.75;;;10.30;99.90;;;;;;5091771;28;20349;-77
2022/01/04 12:41:24;;;;;;;30.58;16.50;;;10.30;99.90;;;;;;5075998;28;20024;-76
2022/01/04 12:43:50;;;;;;;27.63;16.50;;;10.30;99.90;;;;;;5090758;28;20028;-77
2022/01/04 12:46:27;;;;;;;29.70;17.60;;;10.40;99.90;;;;;;5082614;28;20107;-78
2022/01/04 12:48:56;;;;;;;29.63;17.63;;;10.40;99.90;;;;;;5080298;28;20117;-78